Stuart, IA

6:39 PM CDT on May 22, 2015 (GMT -0500)
Perry Municipal | | Change Station
CLOSE
Current Station
Airport
Location: Perry,
Elevation: 1014 ft
Nearby Weather Stations

Elev 1014 ft 41.83 °N, 94.16 °W | Updated 24 minutes ago

Partly Cloudy
Partly Cloudy
72 °F
Feels Like 72 °F
N
15
Wind Variable Wind from SW

Today
High -- | Low -- °F
--% Chance of Precip.
Yesterday
High -- | Low -- °F
Precip. -- in
5:52 AM 8:36 PM
Waxing Crescent, 25% visible
Pressure 30.18 in
Visibility 10.0 miles
Clouds Clear
Dew Point 42 °F
Humidity 34%
Rainfall 0.06 in
Snow Depth Not available.
UV 2 out of 12
Pollen 9.50 out of 12
Air Quality Not available.
Flu Activity Sporadic
METAR KPRO 222315Z AUTO 23013KT 10SM CLR 22/06 A3018 RMK AO2 T02220056

More Conditions Fewer Conditions

Pressure 30.18 in
Visibility 10.0 miles
Clouds Clear
Dew Point 42 °F
Humidity 34%
Rainfall 0.06 in
Snow Depth Not available.
UV 2 out of 12
Pollen 9.50 out of 12
Air Quality Not available.
Flu Activity Sporadic
METAR KPRO 222315Z AUTO 23013KT 10SM CLR 22/06 A3018 RMK AO2 T02220056

More Conditions Fewer Conditions

10-Day Weather Forecast

Almanac

Astronomy

May. 22, 2015 Rise Set
Actual Time
Civil Twilight
Nautical Twilight
Astronomical Twilight
Moon
Length of Visible Light
Length of Day
Tomorrow will be .
, % of the Moon is Illuminated

Today's Extremes

State Highs State Lows

Community

WunderPhotos

Upload Photos

1,823,333 photos uploaded!

WunderBlogs® & News

Nearby

Air Quality

  Air Quality AQ Index Pollutant
Not available.

Snow Depth

Station Depth Elevation

Earthquake Activity

City Distance Mag. Time & Date
Minimum magnitude displayed is 2.5.

Coastal Water Temperatures

Place Temperature

Stations

Nearby Weather Stations

Station Location Temp. Windchill Dew Point Humidity Wind Precip. Elev Updated Type